createdAt,value
2018-12-05T00:01:06.063Z,83.80
2018-12-05T00:03:34.719Z,83.90
2018-12-05T00:06:03.485Z,84.10
2018-12-05T00:08:32.175Z,84.10
2018-12-05T00:11:02.194Z,84.10
2018-12-05T00:13:30.764Z,84.30
2018-12-05T00:15:59.297Z,85.00
2018-12-05T00:18:28.216Z,84.90
2018-12-05T00:20:56.707Z,84.70
2018-12-05T00:23:25.286Z,84.80
2018-12-05T00:25:54.134Z,85.50
2018-12-05T00:28:22.961Z,84.80
2018-12-05T00:30:51.571Z,84.70
2018-12-05T00:33:20.246Z,84.80
2018-12-05T00:35:48.863Z,85.00
2018-12-05T00:38:17.507Z,85.00
2018-12-05T00:40:46.178Z,85.10
2018-12-05T00:43:14.721Z,85.00
2018-12-05T00:45:43.622Z,84.60
2018-12-05T00:48:13.091Z,84.90
2018-12-05T00:50:41.649Z,84.70
2018-12-05T00:53:10.691Z,85.00
2018-12-05T00:55:39.221Z,85.10
2018-12-05T00:58:07.812Z,85.20
2018-12-05T01:00:36.599Z,85.50
2018-12-05T01:03:05.280Z,86.50
2018-12-05T01:05:33.886Z,84.90
2018-12-05T01:08:02.400Z,85.70
2018-12-05T01:10:30.929Z,85.60
2018-12-05T01:12:59.429Z,85.70
2018-12-05T01:15:28.104Z,85.80
2018-12-05T01:17:56.719Z,85.90
2018-12-05T01:20:25.968Z,85.90
2018-12-05T01:22:54.531Z,85.80
2018-12-05T01:25:23.422Z,85.40
2018-12-05T01:27:51.943Z,85.50
2018-12-05T01:30:20.831Z,85.20
2018-12-05T01:32:49.403Z,85.00
2018-12-05T01:35:18.079Z,84.90
2018-12-05T01:37:46.805Z,84.70
2018-12-05T01:40:15.420Z,84.50
2018-12-05T01:42:44.366Z,84.70
2018-12-05T01:45:13.030Z,84.70
2018-12-05T01:47:41.622Z,84.80
2018-12-05T01:50:11.048Z,84.90
2018-12-05T01:52:39.546Z,85.00
2018-12-05T01:55:08.171Z,85.00
2018-12-05T01:57:37.629Z,84.80
2018-12-05T02:00:06.782Z,85.00
2018-12-05T02:02:35.623Z,85.10
2018-12-05T02:05:04.270Z,85.00
2018-12-05T02:07:33.146Z,85.00
2018-12-05T02:10:01.787Z,85.10
2018-12-05T02:12:31.301Z,85.10
2018-12-05T02:14:59.870Z,85.20
2018-12-05T02:17:35.198Z,85.30
2018-12-05T02:20:04.231Z,85.20
2018-12-05T02:22:33.162Z,85.40
2018-12-05T02:25:01.810Z,85.20
2018-12-05T02:27:30.659Z,85.40
2018-12-05T02:29:59.166Z,84.80
2018-12-05T02:32:27.718Z,85.30
2018-12-05T02:34:56.350Z,85.30
2018-12-05T02:37:26.099Z,85.20
2018-12-05T02:39:54.684Z,85.30
2018-12-05T02:42:23.208Z,85.10
2018-12-05T02:44:51.830Z,85.00
2018-12-05T02:47:20.385Z,85.10
2018-12-05T02:49:49.324Z,84.80
2018-12-05T02:52:18.284Z,85.60
2018-12-05T02:54:46.950Z,84.60
2018-12-05T02:57:15.463Z,84.80
2018-12-05T02:59:43.991Z,85.00
2018-12-05T03:02:12.987Z,85.00
2018-12-05T03:04:42.497Z,85.10
2018-12-05T03:07:11.112Z,85.20
2018-12-05T03:09:40.021Z,85.10
2018-12-05T03:12:08.574Z,85.20
2018-12-05T03:14:37.171Z,85.20
2018-12-05T03:17:06.058Z,85.30
2018-12-05T03:19:34.585Z,85.30
2018-12-05T03:22:03.130Z,86.10
2018-12-05T03:24:31.674Z,85.00
2018-12-05T03:27:00.504Z,85.70
2018-12-05T03:29:29.036Z,85.20
2018-12-05T03:31:57.618Z,85.10
2018-12-05T03:34:26.146Z,85.10
2018-12-05T03:36:54.786Z,84.80
2018-12-05T03:39:23.295Z,84.70
2018-12-05T03:41:51.858Z,84.60
2018-12-05T03:44:21.306Z,84.70
2018-12-05T03:46:49.841Z,84.50
2018-12-05T03:49:18.987Z,84.70
2018-12-05T03:51:47.971Z,84.80
2018-12-05T03:54:17.579Z,84.70
2018-12-05T03:56:46.207Z,84.70
2018-12-05T03:59:14.697Z,84.70
2018-12-05T04:01:43.187Z,85.20
2018-12-05T04:04:12.242Z,85.20
2018-12-05T04:06:41.011Z,85.20
2018-12-05T04:09:10.114Z,85.30
2018-12-05T04:11:38.725Z,85.60
2018-12-05T04:14:07.355Z,85.80
2018-12-05T04:16:35.926Z,85.70
2018-12-05T04:19:05.433Z,85.90
2018-12-05T04:21:34.147Z,86.80
2018-12-05T04:24:04.661Z,87.80
2018-12-05T04:26:33.434Z,87.30
2018-12-05T04:29:02.037Z,87.20
2018-12-05T04:31:30.504Z,87.90
2018-12-05T04:33:59.046Z,87.70
2018-12-05T04:36:27.565Z,88.30
2018-12-05T04:38:56.140Z,88.40
2018-12-05T04:41:25.028Z,88.40
2018-12-05T04:43:53.579Z,89.40
2018-12-05T04:46:22.112Z,89.40
2018-12-05T04:48:51.020Z,89.70
2018-12-05T04:51:19.565Z,89.40
2018-12-05T04:53:48.210Z,90.30
2018-12-05T04:56:16.756Z,90.30
2018-12-05T04:58:45.360Z,90.00
2018-12-05T05:01:13.968Z,90.40
2018-12-05T05:03:42.528Z,90.50
2018-12-05T05:06:11.281Z,90.60
2018-12-05T05:08:39.924Z,90.70
2018-12-05T05:11:08.520Z,90.70
2018-12-05T05:13:37.050Z,90.80
2018-12-05T05:16:05.567Z,90.80
2018-12-05T05:18:34.150Z,91.00
2018-12-05T05:21:02.723Z,91.00
2018-12-05T05:23:31.666Z,91.20
2018-12-05T05:26:01.174Z,91.00
2018-12-05T05:28:30.060Z,91.30
2018-12-05T05:30:58.643Z,91.40
2018-12-05T05:33:27.686Z,91.40
2018-12-05T05:35:56.309Z,91.30
2018-12-05T05:38:26.161Z,91.20
2018-12-05T05:40:55.622Z,91.00
2018-12-05T05:43:24.267Z,91.20
2018-12-05T05:45:52.851Z,91.40
2018-12-05T05:48:21.435Z,91.50
2018-12-05T05:50:50.439Z,91.70
2018-12-05T05:53:19.148Z,91.80
2018-12-05T05:55:47.625Z,92.10
2018-12-05T05:58:16.393Z,92.00
2018-12-05T06:00:45.010Z,92.00
2018-12-05T06:03:14.331Z,91.80
2018-12-05T06:05:43.450Z,91.90
2018-12-05T06:08:12.002Z,91.80
2018-12-05T06:10:41.640Z,91.70
2018-12-05T06:13:10.788Z,91.70
2018-12-05T06:15:39.504Z,91.80
2018-12-05T06:18:08.195Z,91.70
2018-12-05T06:20:37.045Z,91.70
2018-12-05T06:23:06.268Z,91.80
2018-12-05T06:25:34.977Z,92.10
2018-12-05T06:28:04.004Z,91.50
2018-12-05T06:30:32.620Z,91.30
2018-12-05T06:33:01.590Z,91.50
2018-12-05T06:35:30.187Z,91.80
2018-12-05T06:37:58.813Z,91.20
2018-12-05T06:40:27.941Z,91.20
2018-12-05T06:42:57.977Z,91.10
2018-12-05T06:45:27.370Z,91.00
2018-12-05T06:47:56.014Z,90.90
2018-12-05T06:50:24.778Z,90.80
2018-12-05T06:52:54.474Z,90.80
2018-12-05T06:55:25.028Z,90.80
2018-12-05T06:57:53.611Z,90.60
2018-12-05T07:00:22.512Z,90.90
2018-12-05T07:02:51.166Z,91.00
2018-12-05T07:05:19.954Z,90.80
2018-12-05T07:07:48.625Z,91.00
2018-12-05T07:10:20.188Z,91.20
2018-12-05T07:12:49.603Z,91.20
2018-12-05T07:15:18.381Z,91.50
2018-12-05T07:17:47.813Z,91.50
2018-12-05T07:20:16.503Z,91.60
2018-12-05T07:22:46.260Z,91.40
2018-12-05T07:25:14.882Z,91.40
2018-12-05T07:27:43.974Z,91.70
2018-12-05T07:30:12.941Z,91.70
2018-12-05T07:32:41.568Z,92.00
2018-12-05T07:35:10.246Z,92.10
2018-12-05T07:37:38.929Z,91.90
2018-12-05T07:40:09.432Z,91.90
2018-12-05T07:42:38.849Z,92.30
2018-12-05T07:45:08.062Z,92.10
2018-12-05T07:47:37.098Z,92.30
2018-12-05T07:50:07.079Z,92.30
2018-12-05T07:52:36.285Z,92.60
2018-12-05T07:55:05.137Z,92.50
2018-12-05T07:57:34.001Z,93.00
2018-12-05T08:00:03.813Z,93.20
2018-12-05T08:02:32.549Z,92.90
2018-12-05T08:05:01.666Z,93.00
2018-12-05T08:07:31.179Z,93.00
2018-12-05T08:10:00.325Z,93.30
2018-12-05T08:12:29.869Z,93.40
2018-12-05T08:14:58.496Z,93.60
2018-12-05T08:17:27.180Z,93.80
2018-12-05T08:19:56.234Z,94.10
2018-12-05T08:22:25.045Z,94.30
2018-12-05T08:24:53.639Z,94.40
2018-12-05T08:27:22.253Z,94.50
2018-12-05T08:29:50.857Z,94.10
2018-12-05T08:32:20.567Z,94.20
2018-12-05T08:34:50.331Z,94.10
2018-12-05T08:37:18.943Z,94.30
2018-12-05T08:39:47.700Z,94.50
2018-12-05T08:42:16.422Z,94.60
2018-12-05T08:44:45.840Z,94.90
2018-12-05T08:47:14.522Z,95.00
2018-12-05T08:49:43.287Z,94.90
2018-12-05T08:52:12.604Z,95.10
2018-12-05T08:54:41.106Z,94.90
2018-12-05T08:57:09.596Z,95.10
2018-12-05T08:59:38.150Z,95.10
2018-12-05T09:02:06.733Z,95.30
2018-12-05T09:04:35.286Z,95.20
2018-12-05T09:07:04.560Z,95.30
2018-12-05T09:09:33.305Z,95.20
2018-12-05T09:12:02.481Z,95.20
2018-12-05T09:14:31.633Z,95.20
2018-12-05T09:17:00.222Z,95.30
2018-12-05T09:19:28.858Z,95.20
2018-12-05T09:21:57.521Z,95.20
2018-12-05T09:24:26.063Z,95.50
2018-12-05T09:26:54.669Z,95.50
2018-12-05T09:29:23.150Z,95.40
2018-12-05T09:31:52.050Z,95.60
2018-12-05T09:34:20.622Z,95.80
2018-12-05T09:36:49.065Z,96.00
2018-12-05T09:39:17.609Z,96.00
2018-12-05T09:41:46.456Z,95.70
2018-12-05T09:44:15.093Z,95.80
2018-12-05T09:46:43.592Z,95.90
2018-12-05T09:49:12.119Z,95.70
2018-12-05T09:51:40.664Z,95.50
2018-12-05T09:54:09.190Z,95.70
2018-12-05T09:56:37.950Z,95.50
2018-12-05T09:59:07.170Z,95.30
2018-12-05T10:01:36.035Z,95.50
2018-12-05T10:04:04.900Z,95.40
2018-12-05T10:06:34.157Z,95.40
2018-12-05T10:09:04.239Z,95.40
2018-12-05T10:11:32.757Z,95.50
2018-12-05T10:14:01.256Z,95.60
2018-12-05T10:16:29.915Z,95.50
2018-12-05T10:18:59.220Z,95.80
2018-12-05T10:21:27.809Z,95.70
2018-12-05T10:23:56.960Z,95.50
2018-12-05T10:26:26.282Z,95.60
2018-12-05T10:28:55.084Z,95.50
2018-12-05T10:31:23.682Z,95.50
2018-12-05T10:33:52.390Z,95.80
2018-12-05T10:36:21.387Z,95.80
2018-12-05T10:38:49.948Z,96.10
2018-12-05T10:41:19.286Z,96.10
2018-12-05T10:43:51.054Z,96.20
2018-12-05T10:46:21.345Z,96.10
2018-12-05T10:48:50.113Z,96.30
2018-12-05T10:51:19.098Z,96.20
2018-12-05T10:53:48.433Z,96.30
2018-12-05T10:56:19.089Z,96.40
2018-12-05T10:58:48.424Z,96.50
2018-12-05T11:01:23.445Z,96.40
2018-12-05T11:03:52.901Z,96.50
2018-12-05T11:06:26.894Z,96.60
2018-12-05T11:11:05.160Z,96.50
2018-12-05T11:13:39.495Z,96.50
2018-12-05T11:16:13.473Z,96.40
2018-12-05T11:18:48.013Z,96.50
2018-12-05T11:21:22.759Z,96.90
2018-12-05T11:23:57.562Z,96.40
2018-12-05T11:26:29.575Z,96.60
2018-12-05T11:28:58.281Z,96.70
2018-12-05T11:31:27.215Z,96.50
2018-12-05T11:33:56.400Z,96.30
2018-12-05T11:36:25.045Z,96.70
2018-12-05T11:38:54.905Z,96.40
2018-12-05T11:41:23.544Z,96.40
2018-12-05T11:43:53.301Z,96.30
2018-12-05T11:46:22.086Z,96.40
2018-12-05T11:48:50.753Z,96.40
2018-12-05T11:51:19.748Z,96.10
2018-12-05T11:53:48.456Z,96.10
2018-12-05T11:56:17.300Z,96.20
2018-12-05T11:58:46.027Z,96.10
2018-12-05T12:01:15.049Z,96.10
2018-12-05T12:03:44.322Z,96.00
2018-12-05T12:06:13.300Z,95.90
2018-12-05T12:08:42.050Z,95.80
2018-12-05T12:11:10.984Z,95.60
2018-12-05T12:13:39.767Z,95.60
2018-12-05T12:16:09.571Z,95.30
2018-12-05T12:18:38.734Z,95.40
2018-12-05T12:21:07.561Z,95.30
2018-12-05T12:23:36.184Z,95.10
2018-12-05T12:26:05.015Z,95.10
2018-12-05T12:28:34.301Z,95.00
2018-12-05T12:31:04.088Z,94.80
2018-12-05T12:33:33.172Z,94.70
2018-12-05T12:36:02.034Z,94.70
2018-12-05T12:38:33.713Z,94.70
2018-12-05T12:41:02.890Z,94.60
2018-12-05T12:43:31.479Z,94.50
2018-12-05T12:46:02.280Z,94.50
2018-12-05T12:48:31.869Z,94.30
2018-12-05T12:51:00.592Z,94.50
2018-12-05T12:53:29.143Z,94.30
2018-12-05T12:55:57.849Z,94.30
2018-12-05T12:58:27.162Z,94.20
2018-12-05T13:00:56.072Z,94.20
2018-12-05T13:03:24.687Z,93.90
2018-12-05T13:05:53.453Z,93.80
2018-12-05T13:08:22.037Z,94.00
2018-12-05T13:10:51.061Z,94.00
2018-12-05T13:13:19.603Z,93.90
2018-12-05T13:15:48.502Z,93.70
2018-12-05T13:18:17.404Z,93.80
2018-12-05T13:20:46.113Z,94.10
2018-12-05T13:23:14.809Z,93.90
2018-12-05T13:25:43.538Z,93.80
2018-12-05T13:28:12.287Z,93.80
2018-12-05T13:30:41.028Z,93.90
2018-12-05T13:33:09.653Z,93.90
2018-12-05T13:35:38.717Z,93.90
2018-12-05T13:38:07.354Z,93.70
2018-12-05T13:40:35.970Z,93.80
2018-12-05T13:43:04.850Z,93.90
2018-12-05T13:45:33.579Z,93.90
2018-12-05T13:48:02.666Z,94.00
2018-12-05T13:50:32.067Z,94.00
2018-12-05T13:53:01.426Z,93.90
2018-12-05T13:55:30.188Z,93.90
2018-12-05T13:57:58.796Z,93.80
2018-12-05T14:00:28.137Z,93.90
2018-12-05T14:02:56.752Z,94.00
2018-12-05T14:05:25.393Z,93.80
2018-12-05T14:07:54.123Z,93.70
2018-12-05T14:10:23.284Z,93.70
2018-12-05T14:12:52.303Z,93.60
2018-12-05T14:15:20.908Z,93.60
2018-12-05T14:17:50.768Z,93.80
2018-12-05T14:20:19.450Z,93.90
2018-12-05T14:22:48.119Z,93.90
2018-12-05T14:25:16.935Z,93.90
2018-12-05T14:27:46.229Z,94.00
2018-12-05T14:30:15.434Z,94.50
2018-12-05T14:32:44.046Z,94.20
2018-12-05T14:35:12.705Z,94.00
2018-12-05T14:37:42.406Z,94.10
2018-12-05T14:40:11.220Z,94.20
2018-12-05T14:42:41.719Z,94.20
2018-12-05T14:45:11.079Z,94.30
2018-12-05T14:47:39.694Z,94.40
2018-12-05T14:50:08.687Z,94.10
2018-12-05T14:52:37.341Z,94.20
2018-12-05T14:55:07.509Z,94.30
2018-12-05T14:57:36.187Z,94.20
2018-12-05T15:00:05.433Z,94.10
2018-12-05T15:02:34.150Z,94.10
2018-12-05T15:05:03.721Z,94.30
2018-12-05T15:07:32.741Z,94.00
2018-12-05T15:10:01.327Z,94.00
2018-12-05T15:12:30.017Z,93.90
2018-12-05T15:15:00.195Z,94.00
2018-12-05T15:17:28.793Z,93.90
2018-12-05T15:19:58.366Z,93.90
2018-12-05T15:22:27.062Z,93.90
2018-12-05T15:24:55.883Z,94.00
2018-12-05T15:27:24.917Z,94.10
2018-12-05T15:29:54.588Z,94.00
2018-12-05T15:32:23.206Z,93.90
2018-12-05T15:34:52.251Z,93.90
2018-12-05T15:37:22.568Z,93.90
2018-12-05T15:39:51.991Z,93.80
2018-12-05T15:42:20.951Z,93.70
2018-12-05T15:44:49.587Z,93.80
2018-12-05T15:47:18.161Z,93.80
2018-12-05T15:49:46.871Z,93.90
2018-12-05T15:52:16.148Z,94.00
2018-12-05T15:54:45.325Z,94.00
2018-12-05T15:57:14.118Z,93.90
2018-12-05T15:59:44.286Z,93.80
2018-12-05T16:02:13.066Z,93.80
2018-12-05T16:04:42.597Z,94.20
2018-12-05T16:07:11.880Z,93.60
2018-12-05T16:09:40.398Z,93.70
2018-12-05T16:12:09.693Z,93.90
2018-12-05T16:14:38.889Z,94.20
2018-12-05T16:17:07.445Z,94.40
2018-12-05T16:19:36.025Z,94.40
2018-12-05T16:22:04.898Z,94.30
2018-12-05T16:24:34.436Z,94.30
2018-12-05T16:27:03.501Z,94.30
2018-12-05T16:29:32.146Z,94.30
2018-12-05T16:32:00.710Z,94.10
2018-12-05T16:34:29.255Z,94.00
2018-12-05T16:36:58.081Z,93.80
2018-12-05T16:39:27.494Z,93.80
2018-12-05T16:41:59.319Z,93.90
2018-12-05T16:44:30.239Z,93.70
2018-12-05T16:46:59.961Z,94.00
2018-12-05T16:49:28.680Z,94.00
2018-12-05T16:51:57.445Z,94.00
2018-12-05T16:54:27.732Z,93.90
2018-12-05T16:56:56.718Z,94.00
2018-12-05T16:59:25.644Z,94.10
2018-12-05T17:01:54.293Z,94.10
2018-12-05T17:04:22.862Z,94.00
2018-12-05T17:06:51.957Z,93.90
2018-12-05T17:09:26.044Z,93.80
2018-12-05T17:11:52.153Z,94.10
2018-12-05T17:14:20.816Z,93.80
2018-12-05T17:16:49.438Z,93.70
2018-12-05T17:19:18.181Z,93.80
2018-12-05T17:21:46.890Z,93.70
2018-12-05T17:24:15.477Z,93.80
2018-12-05T17:26:44.392Z,93.80
2018-12-05T17:29:13.123Z,93.80
2018-12-05T17:31:42.027Z,93.90
2018-12-05T17:34:10.716Z,93.80
2018-12-05T17:36:40.791Z,94.00
2018-12-05T17:39:09.810Z,93.90
2018-12-05T17:41:38.551Z,93.90
2018-12-05T17:44:09.407Z,94.00
2018-12-05T17:46:43.079Z,94.30
2018-12-05T17:49:11.677Z,94.10
2018-12-05T17:51:41.206Z,94.10
2018-12-05T17:54:14.735Z,94.10
2018-12-05T17:56:42.098Z,94.20
2018-12-05T17:59:10.689Z,94.10
2018-12-05T18:01:39.565Z,94.00
2018-12-05T18:04:08.401Z,94.10
2018-12-05T18:06:36.975Z,93.90
2018-12-05T18:09:08.170Z,93.90
2018-12-05T18:11:36.842Z,93.90
2018-12-05T18:14:05.567Z,93.90
2018-12-05T18:16:34.306Z,94.00
2018-12-05T18:19:03.978Z,93.90
2018-12-05T18:21:32.661Z,93.90
2018-12-05T18:24:01.748Z,94.00
2018-12-05T18:26:30.457Z,94.00
2018-12-05T18:28:59.851Z,94.00
2018-12-05T18:31:28.918Z,93.90
2018-12-05T18:33:59.092Z,93.80
2018-12-05T18:36:28.913Z,93.70
2018-12-05T18:38:57.999Z,93.80
2018-12-05T18:41:26.775Z,93.60
2018-12-05T18:43:55.505Z,93.80
2018-12-05T18:46:26.033Z,93.60
2018-12-05T18:48:56.623Z,93.70
2018-12-05T18:51:26.605Z,93.50
2018-12-05T18:53:56.826Z,93.50
2018-12-05T18:56:26.106Z,93.70
2018-12-05T18:58:57.199Z,93.60
2018-12-05T19:01:26.983Z,93.60
2018-12-05T19:03:57.094Z,93.50
2018-12-05T19:06:26.549Z,93.50
2018-12-05T19:08:55.865Z,93.50
2018-12-05T19:11:27.560Z,93.50
2018-12-05T19:14:01.567Z,93.60
2018-12-05T19:16:30.884Z,93.60
2018-12-05T19:19:00.333Z,94.30
2018-12-05T19:21:29.467Z,93.90
2018-12-05T19:23:58.691Z,94.10
2018-12-05T19:26:27.415Z,94.00
2018-12-05T19:28:56.203Z,94.00
2018-12-05T19:31:25.079Z,94.10
2018-12-05T19:33:53.967Z,94.00
2018-12-05T19:36:23.034Z,93.90
2018-12-05T19:38:51.789Z,93.90
2018-12-05T19:41:20.490Z,93.90
2018-12-05T19:43:50.454Z,93.80
2018-12-05T19:46:19.460Z,93.80
2018-12-05T19:48:48.459Z,93.80
2018-12-05T19:51:17.502Z,93.70
2018-12-05T19:53:46.426Z,93.80
2018-12-05T19:56:16.366Z,93.90
2018-12-05T19:58:46.276Z,93.80
2018-12-05T20:01:17.579Z,93.80
2018-12-05T20:03:47.356Z,93.70
2018-12-05T20:06:16.246Z,93.80
2018-12-05T20:08:46.419Z,93.90
2018-12-05T20:11:16.638Z,93.80
2018-12-05T20:13:46.231Z,93.80
2018-12-05T20:16:15.245Z,93.70
2018-12-05T20:18:44.056Z,93.70
2018-12-05T20:21:12.846Z,93.70
2018-12-05T20:23:41.578Z,93.80
2018-12-05T20:26:10.864Z,94.00
2018-12-05T20:28:39.752Z,94.10
2018-12-05T20:31:08.388Z,94.60
2018-12-05T20:33:37.435Z,94.50
2018-12-05T20:36:06.441Z,94.70
2018-12-05T20:38:35.232Z,94.80
2018-12-05T20:41:04.120Z,94.70
2018-12-05T20:43:32.937Z,94.80
2018-12-05T20:46:01.705Z,94.80
2018-12-05T20:48:30.438Z,94.90
2018-12-05T20:50:59.477Z,94.90
2018-12-05T20:53:28.292Z,95.10
2018-12-05T20:55:56.902Z,95.10
2018-12-05T20:58:25.696Z,95.10
2018-12-05T21:00:54.336Z,95.00
2018-12-05T21:03:23.017Z,95.30
2018-12-05T21:05:51.743Z,95.40
2018-12-05T21:08:20.325Z,95.40
2018-12-05T21:10:48.990Z,95.50
2018-12-05T21:13:17.696Z,95.60
2018-12-05T21:15:47.172Z,95.70
2018-12-05T21:18:15.797Z,95.80
2018-12-05T21:20:45.069Z,96.00
2018-12-05T21:23:13.749Z,96.10
2018-12-05T21:25:42.369Z,96.40
2018-12-05T21:28:10.939Z,96.50
2018-12-05T21:30:39.737Z,96.60
2018-12-05T21:33:08.358Z,96.70
2018-12-05T21:35:36.934Z,96.70
2018-12-05T21:38:06.071Z,96.80
2018-12-05T21:40:36.963Z,96.80
2018-12-05T21:43:06.094Z,96.90
2018-12-05T21:45:34.780Z,97.30
2018-12-05T21:48:03.531Z,96.90
2018-12-05T21:50:32.161Z,96.80
2018-12-05T21:53:01.029Z,96.80
2018-12-05T21:55:29.604Z,96.80
2018-12-05T21:57:58.180Z,96.80
2018-12-05T22:00:26.777Z,96.80
2018-12-05T22:02:55.540Z,96.90
2018-12-05T22:05:24.188Z,96.60
2018-12-05T22:07:53.344Z,96.70
2018-12-05T22:10:22.313Z,96.60
2018-12-05T22:12:51.384Z,96.80
2018-12-05T22:15:19.905Z,96.80
2018-12-05T22:17:48.650Z,96.80
2018-12-05T22:20:18.258Z,96.80
2018-12-05T22:22:46.792Z,96.80
2018-12-05T22:25:15.305Z,96.90
2018-12-05T22:27:44.070Z,96.90
2018-12-05T22:30:12.682Z,97.10
2018-12-05T22:32:41.292Z,97.30
2018-12-05T22:35:10.457Z,97.40
2018-12-05T22:37:39.079Z,97.30
2018-12-05T22:40:08.751Z,97.40
2018-12-05T22:42:37.307Z,97.60
2018-12-05T22:45:06.175Z,97.60
2018-12-05T22:47:34.708Z,97.60
2018-12-05T22:50:03.431Z,97.70
2018-12-05T22:52:31.948Z,97.70
2018-12-05T22:55:00.476Z,97.70
2018-12-05T22:57:30.093Z,97.70
2018-12-05T22:59:59.358Z,97.80
2018-12-05T23:02:27.895Z,98.00
2018-12-05T23:04:56.410Z,98.00
2018-12-05T23:07:24.897Z,98.10
2018-12-05T23:09:53.438Z,98.10
2018-12-05T23:12:22.723Z,98.10
2018-12-05T23:14:51.269Z,98.10
2018-12-05T23:17:20.389Z,98.10
2018-12-05T23:19:48.926Z,98.10
2018-12-05T23:22:17.430Z,98.10
2018-12-05T23:24:45.917Z,98.00
2018-12-05T23:27:15.445Z,98.00
2018-12-05T23:29:44.063Z,98.00
2018-12-05T23:32:12.572Z,97.90
2018-12-05T23:34:41.091Z,97.90
2018-12-05T23:37:09.606Z,97.90
2018-12-05T23:39:38.876Z,97.90
2018-12-05T23:42:07.468Z,98.00
2018-12-05T23:44:36.059Z,97.90
2018-12-05T23:47:05.251Z,97.90
2018-12-05T23:49:34.364Z,97.80
2018-12-05T23:52:46.564Z,97.90
2018-12-05T23:55:15.037Z,97.90
2018-12-05T23:57:43.533Z,97.90
